AirNav   Everest Fuels
 
 534 users online  

0CD2 Foxx Valley Airport
Yoder, Colorado, USA

GOING TO YODER?


FAA INFORMATION EFFECTIVE 02 JANUARY 2020

Location

FAA Identifier: 0CD2
Lat/Long: 38-39-09.0000N 104-14-04.2000W
38-39.150000N 104-14.070000W
38.6525000,-104.2345000
(estimated)
Elevation: 5800 ft. / 1768 m (estimated)
From city: 14 miles S of YODER, CO
Time zone: UTC -7 (UTC -6 during Daylight Saving Time)
Zip code: 80864

Airport Operations

Airport use: Private use. Permission required prior to landing
Activation date: 05/2006
Control tower: no
ARTCC: DENVER CENTER
FSS: DENVER FLIGHT SERVICE STATION
Attendance: UNATNDD
Wind indicator: yes
Segmented circle: no

Airport Communications

WX ASOS at CO90 (7 nm NW): 125.0 (719-637-9696)

Nearby radio navigation aids

VOR radial/distance  VOR name  Freq  Var
PUBr015/23.4PUEBLO VORTAC116.7008E
FCSr082/24.5BUTTS VOR/DME108.8012E
BRKr125/25.6BLACK FOREST VOR/DME112.5008E
HGOr244/30.4HUGO VOR/DME112.1007E

 
NDB name  Hdg/Dist  Freq  Var  ID
IRONHORSE082/24.433512EIHS .. .... ...

Airport Services

Runway Information

Runway 17/35

Dimensions: 5000 x 100 ft. / 1524 x 30 m
Surface: turf, in fair condition
RUNWAY 17  RUNWAY 35
Traffic pattern: leftleft
Obstructions: 5 ft. fence, marked, 30 ft. from runway30 ft. pline, marked, 250 ft. from runway

Runway 8/26

Dimensions: 2500 x 50 ft. / 762 x 15 m
Surface: turf, in poor condition
RUNWAY 8  RUNWAY 26
Traffic pattern: leftleft
Obstructions: 30 ft. pline, 110 ft. from runway5 ft. fence, marked, 30 ft. from runway

Airport Ownership and Management from official FAA records

Ownership: Privately-owned
Owner: ROBERT LEE WILSON
12575 SOUTH LAUPPE ROAD
YODER, CO 80864
Phone 719-478-2323
Manager: ROBERT LEE WILSON
12575 SOUTH LAUPPE ROAD
YODER, CO 80864
Phone 719-478-2323

Airport Operational Statistics

Aircraft based on the field: 1
Single engine airplanes: 1
    

Additional Remarks

OWNER DESIRES CHARTING.
FOR CD CTC COLORADO SPRINGS APCH AT 719-556-9105.

Instrument Procedures

There are no published instrument procedures at 0CD2.

Some nearby airports with instrument procedures:

KCOS - City of Colorado Springs Municipal Airport (24 nm NW)
KPUB - Pueblo Memorial Airport (25 nm SW)
1V6 - Fremont County Airport (43 nm W)
KLHX - La Junta Municipal Airport (50 nm SE)
KAPA - Centennial Airport (62 nm NW)
 
Loc | Ops | Rwys | IFR | FBO | Links
Com | Nav | Svcs | Stats | Notes

AirBoss

 
Area around 0CD2 (Foxx Valley Airport)
 
Road maps at: MapQuest Bing Google
 
Aerial photo
No photo
 
Sectional chart

 
Airport distance calculator
Flying to Foxx Valley Airport? Find the distance to fly.

From to 0CD2

Sunrise and sunset
Times for 24-Jan-2020
 Local
(UTC-7)
 Zulu
(UTC)
Morning civil twilight06:4113:41
Sunrise07:1014:10
Sunset17:0800:08
Evening civil twilight17:3700:37

Current date and time
Zulu (UTC)  24-Jan-2020 09:18:30
Local (UTC-7)  24-Jan-2020 02:18:30
 
METAR
KFLY 
24nm NW 
240855Z AUTO 27008KT 10SM CLR M04/M12 A3008 RMK AO2 T10411118
KCOS 
25nm NW 
240854Z 00000KT 10SM SCT230 M05/M12 A3009 RMK AO2 SLP217 T10501122 56009
KFCS 
25nm W 
240858Z AUTO 34005KT 10SM CLR M06/M12 A3007 RMK AO2 SLP229 T10631122 57009 $
KPUB 
25nm SW 
240853Z AUTO 28003KT 10SM CLR M07/M12 A3011 RMK AO2 SLP211 T10671122 56007
KAFF 
33nm NW 
240858Z AUTO 36009KT 10SM CLR M10/M13 A3005 RMK AO2 SLP214 T10981128 57008
KMNH 
39nm NW 
240848Z AUTO 22007KT 10SM BKN060 M04/M11 A3007 RMK AO2
K1V6 
43nm W 
231810Z AUTO 13007KT 111V171 10SM CLR 05/M07 A3014 RMK AO2
KLIC 
45nm NE 
240855Z AUTO 00000KT 10SM OVC075 M04/M11 A3007 RMK AO2 SLP195 T10391106 56009
TAF
KCOS 
25nm NW 
240536Z 2406/2506 35006KT P6SM FEW250 FM241700 16008KT P6SM FEW140 SCT250 FM250200 03007KT P6SM SCT090 BKN140
KFCS 
25nm W 
240503Z 2405/2511 VRB06KT 9999 SCT070 SCT100 QNH3003INS BECMG 2414/2415 32009KT 9999 SKC QNH2997INS BECMG 2423/2424 VRB06KT 9999 FEW100 QNH2990INS TX09/2421Z TNM10/2412Z
KPUB 
25nm SW 
240536Z 2406/2506 VRB05KT P6SM FEW250 FM241900 13007KT P6SM FEW150 SCT250 FM250300 30006KT P6SM SCT100 BKN150
NOTAMs
Click for the latest NOTAMs
NOTAMs are issued by the DoD/FAA and will open in a separate window not controlled by AirNav.

 

 
 

Would you like to see your business listed on this page?

 If your business provides an interesting product or service to pilots, flight crews, aircraft, or users of the Foxx Valley Airport, you should consider listing it here.  To start the listing process, click on the button below
 
Add a business
 

Other Pages about Foxx Valley Airport

Update a link
 
Copyright © AirNav, LLC. All rights reserved. Privacy Policy  Contact